LFPM 191730Z AUTO 32011KT 9999 4600 +RA BKN023/// BKN028/// OVC038/// ///CB 11/08 Q1017

Notre flotte, composée de neuf avions de 65 à 285 CV

Liens externes